• Join FlightAware (Why Join?)
  • Login
  • US Flag 
02:45AM EDT


 

Airport Tracker/Info


-or-


 

Live Flight TrackerFlight Track Log ✈ DAL695 ✈ 10-Jun-2013 ✈ KJFK - KMCO

Flight Track Log - Related Links

Times and Time Zones

All times are in EDT time to prevent confusion due to time zone crossing. See the DAL695 flight status page for this flight to view local times or setup timezone preferences in your user account.

Time Position Orientation Groundspeed Altitude Reporting Facility
EDT Latitude Longitude Course Direction KTS MPH feet Rate Location/Type
11:09AM 40.5833 -73.8167 223° Southwest 216 249 2,000  Level New York TRACON
11:11AM 40.5117 -73.7492 144° Southeast 234 269 5,700 2,520 Climbing New York Center
11:12AM 40.2639 -73.4278 123° Southeast  Level FlightAware Approximate
11:12AM 40.4658 -73.6628 125° Southeast 264 304 8,700  Level New York Center
11:13AM 40.1756 -73.3319 146° Southeast  Level FlightAware Approximate
11:13AM 40.4153 -73.5978 136° Southeast 273 314 10,700  Level New York Center
11:14AM 40.0800 -73.2540 223° Southwest  Level FlightAware Approximate
11:14AM 40.3403 -73.5131 139° Southeast 308 354 12,500  Level New York Center
11:15AM 40.2731 -73.4397 140° Southeast 344 396 14,600 1,740 Climbing New York Center
11:17AM 40.0708 -73.3061 153° Southeast 352 405 18,300 1,500 Climbing Washington Center
11:18AM 39.9889 -73.3872 217° Southwest 316 364 19,500 1,320 Climbing Washington Center
11:19AM 39.9133 -73.4681 219° Southwest 346 398 20,900 1,380 Climbing Washington Center
11:20AM 39.8297 -73.5625 221° Southwest 378 435 22,300 1,260 Climbing Washington Center
11:21AM 39.7417 -73.6594 220° Southwest 398 458 23,500 840 Climbing Washington Center
11:22AM 39.6514 -73.7589 220° Southwest 416 479 24,000 840 Climbing Washington Center
11:23AM 39.5592 -73.8633 221° Southwest 436 502 25,200 1,260 Climbing Washington Center
11:24AM 39.4650 -73.9653 220° Southwest 436 502 26,500 1,080 Climbing Washington Center
11:25AM 39.3725 -74.0667 220° Southwest 441 507 27,500 1,200 Climbing Washington Center
11:26AM 39.2800 -74.1706 221° Southwest 447 514 29,000 1,320 Climbing Washington Center
11:27AM 39.1894 -74.2661 219° Southwest 441 507 30,200 1,020 Climbing Washington Center
11:28AM 39.1008 -74.3614 220° Southwest 435 501 31,100 780 Climbing Washington Center
11:29AM 39.0119 -74.4589 220° Southwest 430 495 31,900 420 Climbing Washington Center
11:30AM 38.9233 -74.5536 220° Southwest 424 488 32,000  Climbing Washington Center
11:31AM 38.8303 -74.6536 220° Southwest 424 488 32,000  Level Washington Center
11:32AM 38.7414 -74.7481 220° Southwest 424 488 32,000  Level Washington Center
11:33AM 38.6525 -74.8419 220° Southwest 424 488 32,000  Level Washington Center
11:34AM 38.5653 -74.9386 221° Southwest 424 488 32,000  Level Washington Center
11:35AM 38.4761 -75.0294 219° Southwest 424 488 32,000  Level Washington Center
11:36AM 38.3869 -75.1228 219° Southwest 424 488 32,000  Level Washington Center
11:37AM 38.3100 -75.2108 222° Southwest 424 488 32,000  Level Washington Center
11:38AM 38.2122 -75.2958 214° Southwest 424 488 32,000  Level Washington Center
11:39AM 38.1167 -75.3806 215° Southwest 424 488 32,000  Level Washington Center
11:40AM 38.0186 -75.4653 214° Southwest 430 495 32,000  Level Washington Center
11:41AM 37.9208 -75.5444 213° Southwest 424 488 32,000  Level Washington Center
11:42AM 37.8228 -75.6233 212° Southwest 424 488 32,000  Level Washington Center
11:43AM 37.7267 -75.7019 213° Southwest 424 488 32,000  Level Washington Center
11:44AM 37.6286 -75.7833 213° Southwest 424 488 32,000  Level Washington Center
11:45AM 37.5306 -75.8617 212° Southwest 424 488 32,000  Level Washington Center
11:46AM 37.4303 -75.9450 213° Southwest 424 488 32,000  Level Washington Center
11:47AM 37.3403 -76.0333 218° Southwest 424 488 32,000  Level Washington Center
11:48AM 37.2564 -76.1347 224° Southwest 424 488 32,000  Level Washington Center
11:49AM 37.1683 -76.2331 222° Southwest 424 488 32,000  Level Washington Center
11:50AM 37.0864 -76.3364 225° Southwest 419 482 32,000  Level Washington Center
11:51AM 37.0083 -76.4425 227° Southwest 414 476 32,000  Level Washington Center
11:52AM 36.9306 -76.5456 227° Southwest 414 476 32,000  Level Washington Center
11:53AM 36.8461 -76.6483 224° Southwest 414 476 32,000  Level Washington Center
11:54AM 36.7453 -76.7219 210° Southwest 419 482 32,000  Level Washington Center
11:55AM 36.6319 -76.7928 207° Southwest 419 482 32,000  Level Washington Center
11:56AM 36.5353 -76.8533 207° Southwest 424 488 32,000  Level Washington Center
11:57AM 36.4200 -76.9239 206° Southwest 424 488 32,000  Level Washington Center
11:58AM 36.3147 -76.9864 206° Southwest 424 488 32,000  Level Washington Center
11:59AM 36.2078 -77.0517 206° Southwest 429 494 32,000  Level Washington Center
12:00PM 36.1025 -77.1164 206° Southwest 429 494 32,000  Level Washington Center
12:01PM 36.0017 -77.1814 208° Southwest 424 488 32,000  Level Washington Center
12:02PM 35.8942 -77.2458 206° Southwest 424 488 32,000  Level Washington Center
12:03PM 35.7850 -77.3100 205° Southwest 429 494 32,000  Level Washington Center
12:04PM 35.6942 -77.3694 208° Southwest 429 494 32,000  Level Washington Center
12:05PM 35.5931 -77.4464 212° Southwest 429 494 32,000  Level Washington Center
12:06PM 35.5017 -77.5386 219° Southwest 429 494 32,000  Level Washington Center
12:07PM 35.4106 -77.6308 220° Southwest 429 494 32,000  Level Washington Center
12:08PM 35.3192 -77.7200 219° Southwest 429 494 32,000  Level Washington Center
12:09PM 35.2300 -77.8092 219° Southwest 429 494 32,000  Level Washington Center
12:10PM 35.1386 -77.8983 219° Southwest 429 494 32,000  Level Washington Center
12:11PM 35.0492 -77.9894 220° Southwest 429 494 32,000  Level Washington Center
12:12PM 34.9597 -78.0756 218° Southwest 424 488 32,000  Level Washington Center
12:13PM 34.8681 -78.1664 219° Southwest 430 495 32,000  Level Washington Center
12:14PM 34.7719 -78.2697 221° Southwest 425 489 32,000  Level Washington Center
12:16PM 34.5558 -78.4708 217° Southwest 423 487 32,000  Level Jacksonville Center
12:17PM 34.4592 -78.5739 221° Southwest 428 493 32,000  Level Jacksonville Center
12:18PM 34.3664 -78.6617 218° Southwest 434 499 32,000  Level Jacksonville Center
12:19PM 34.2711 -78.7517 218° Southwest 434 499 32,000  Level Jacksonville Center
12:20PM 34.1781 -78.8389 218° Southwest 429 494 32,000  Level Jacksonville Center
12:21PM 34.0869 -78.9258 218° Southwest 429 494 32,000  Level Jacksonville Center
12:22PM 33.9917 -79.0128 217° Southwest 429 494 32,000  Level Jacksonville Center
12:23PM 33.9003 -79.0994 218° Southwest 429 494 32,000  Level Jacksonville Center
12:24PM 33.8050 -79.1886 218° Southwest 435 501 32,000  Level Jacksonville Center
12:25PM 33.7136 -79.2747 218° Southwest 435 501 32,000  Level Jacksonville Center
12:26PM 33.6261 -79.3581 218° Southwest 419 482 32,000  Level Jacksonville Center
12:27PM 33.5347 -79.4442 218° Southwest 419 482 32,000  Level Jacksonville Center
12:28PM 33.4411 -79.5347 219° Southwest 424 488 32,000  Level Jacksonville Center
12:29PM 33.3494 -79.6178 217° Southwest 424 488 32,000  Level Jacksonville Center
12:30PM 33.2556 -79.7058 218° Southwest 430 495 32,000  Level Jacksonville Center
12:31PM 33.1619 -79.7933 218° Southwest 430 495 32,000  Level Jacksonville Center
12:32PM 33.0700 -79.8783 218° Southwest 430 495 32,000  Level Jacksonville Center
12:33PM 32.9739 -79.9658 217° Southwest 430 495 32,000  Level Jacksonville Center
12:34PM 32.8778 -80.0531 217° Southwest 430 495 32,000  Level Jacksonville Center
12:35PM 32.7772 -80.1278 212° Southwest 430 495 32,000  Level Jacksonville Center
12:36PM 32.6744 -80.2050 212° Southwest 435 501 32,000  Level Jacksonville Center
12:37PM 32.5758 -80.2769 212° Southwest 435 501 32,000  Level Jacksonville Center
12:38PM 32.4731 -80.3539 212° Southwest 435 501 32,000  Level Jacksonville Center
12:39PM 32.3703 -80.4306 212° Southwest 430 495 32,000  Level Jacksonville Center
12:40PM 32.2672 -80.4994 209° Southwest 431 496 32,000  Level Jacksonville Center
12:41PM 32.1511 -80.5444 198° South 433 498 32,000  Level Jacksonville Center
12:42PM 32.0392 -80.5914 200° South 433 498 32,000  Level Jacksonville Center
12:43PM 31.9253 -80.6383 199° South 439 505 32,000  Level Jacksonville Center
12:44PM 31.8236 -80.6797 199° South 444 511 32,000  Level Jacksonville Center
12:45PM 31.6972 -80.7292 198° South 444 511 32,000  Level Jacksonville Center
12:46PM 31.5933 -80.7706 199° South 444 511 32,000  Level Jacksonville Center
12:47PM 31.4689 -80.8222 200° South 444 511 32,000  Level Jacksonville Center
12:48PM 31.3528 -80.8686 199° South 444 511 32,000  Level Jacksonville Center
12:49PM 31.2325 -80.9197 200° South 453 521 32,000  Level Jacksonville Center
12:50PM 31.1183 -80.9658 199° South 442 509 32,000  Level Jacksonville Center
12:51PM 31.0042 -81.0117 199° South 442 509 32,000  Level Jacksonville Center
12:52PM 30.8900 -81.0600 200° South 442 509 32,000  Level Jacksonville Center
12:53PM 30.7717 -81.1033 197° South 442 509 32,000  Level Jacksonville Center
12:54PM 30.6575 -81.1467 198° South 442 509 32,000 -360 Level Jacksonville Center
12:55PM 30.5386 -81.1561 184° South 429 494 31,300 -1,380 Descending Jacksonville Center
12:56PM 30.4133 -81.1511 178° South 429 494 29,300 -1,920 Descending Jacksonville Center
12:57PM 30.2858 -81.1461 178° South 446 513 27,500 -1,500 Descending Jacksonville Center
12:58PM 30.1856 -81.1456 180° South 452 520 26,400 -1,200 Descending Jacksonville Center
12:59PM 30.0542 -81.1408 178° South 452 520 25,100 -1,080 Descending Jacksonville Center
01:00PM 29.9328 -81.1358 178° South 442 509 24,300 -780 Descending Jacksonville Center
01:01PM 29.8119 -81.1356 180° South 436 502 23,600 -960 Descending Jacksonville Center
01:02PM 29.6969 -81.1306 178° South 431 496 22,400 -1,680 Descending Jacksonville Center
01:03PM 29.5842 -81.1300 180° South 420 483 20,300 -2,220 Descending Jacksonville Center
01:04PM 29.4756 -81.1250 178° South 407 468 18,000 -2,160 Descending Jacksonville Center
01:05PM 29.3733 -81.1219 173° South 386 444 16,000 -2,160 Descending Jacksonville Center
01:06PM 29.3398 -81.1057 173° South  Level FlightAware Approximate
01:06PM 29.2708 -81.1167 177° South 375 432 13,700  Level Jacksonville Center
01:07PM 29.1706 -81.1114 177° South 370 426 11,900 -900 Descending Jacksonville Center
01:08PM 29.0744 -81.0989 174° South 364 419 11,900  Level Jacksonville Center
01:09PM 28.9847 -81.1006 181° South 347 399 11,900 -480 Level Jacksonville Center
01:10PM 28.9036 -81.1139 188° South 322 371 11,000 -1,200 Descending Jacksonville Center
01:11PM 28.8244 -81.1294 190° South 300 345 9,500 -1,560 Descending Jacksonville Center
01:12PM 28.7539 -81.1567 199° South 288 331 7,900 -1,500 Descending Jacksonville Center
01:13PM 28.7297 -81.2281 249° West 236 272 6,500 -1,680 Descending Jacksonville Center
01:14PM 28.6739 -81.2597 206° Southwest 236 272 4,600 -1,800 Descending Jacksonville Center
01:15PM 28.6136 -81.2775 195° South 225 259 2,900 -1,740 Descending Jacksonville Center